sensor_id;sensor_type;location;lat;lon;timestamp;P1;durP1;ratioP1;P2;durP2;ratioP2
25609;SDS011;13479;49.044;8.716;2022-08-06T00:02:25;2.55;;;1.00;;
25609;SDS011;13479;49.044;8.716;2022-08-06T00:04:52;2.80;;;1.00;;
25609;SDS011;13479;49.044;8.716;2022-08-06T00:07:18;2.55;;;0.90;;
25609;SDS011;13479;49.044;8.716;2022-08-06T00:09:43;3.17;;;1.13;;
25609;SDS011;13479;49.044;8.716;2022-08-06T00:12:08;1.83;;;0.88;;
25609;SDS011;13479;49.044;8.716;2022-08-06T00:14:34;1.92;;;0.90;;
25609;SDS011;13479;49.044;8.716;2022-08-06T00:17:00;2.65;;;0.85;;
25609;SDS011;13479;49.044;8.716;2022-08-06T00:19:26;2.78;;;1.00;;
25609;SDS011;13479;49.044;8.716;2022-08-06T00:21:52;3.25;;;1.00;;
25609;SDS011;13479;49.044;8.716;2022-08-06T00:24:18;2.25;;;0.90;;
25609;SDS011;13479;49.044;8.716;2022-08-06T00:26:44;1.98;;;1.10;;
25609;SDS011;13479;49.044;8.716;2022-08-06T00:29:09;3.88;;;1.10;;
25609;SDS011;13479;49.044;8.716;2022-08-06T00:31:34;1.50;;;0.80;;
25609;SDS011;13479;49.044;8.716;2022-08-06T00:34:00;2.63;;;1.10;;
25609;SDS011;13479;49.044;8.716;2022-08-06T00:36:27;3.65;;;0.90;;
25609;SDS011;13479;49.044;8.716;2022-08-06T00:38:54;2.85;;;0.90;;
25609;SDS011;13479;49.044;8.716;2022-08-06T00:41:20;1.33;;;0.75;;
25609;SDS011;13479;49.044;8.716;2022-08-06T00:43:46;2.75;;;0.95;;
25609;SDS011;13479;49.044;8.716;2022-08-06T00:46:12;3.53;;;1.10;;
25609;SDS011;13479;49.044;8.716;2022-08-06T00:48:37;1.67;;;0.88;;
25609;SDS011;13479;49.044;8.716;2022-08-06T00:51:03;1.92;;;0.80;;
25609;SDS011;13479;49.044;8.716;2022-08-06T00:53:28;2.72;;;0.93;;
25609;SDS011;13479;49.044;8.716;2022-08-06T00:55:54;1.95;;;0.90;;
25609;SDS011;13479;49.044;8.716;2022-08-06T00:58:19;2.28;;;0.77;;
25609;SDS011;13479;49.044;8.716;2022-08-06T01:00:45;1.60;;;0.90;;
25609;SDS011;13479;49.044;8.716;2022-08-06T01:03:10;2.20;;;0.90;;
25609;SDS011;13479;49.044;8.716;2022-08-06T01:05:36;1.75;;;0.77;;
25609;SDS011;13479;49.044;8.716;2022-08-06T01:08:01;4.05;;;0.85;;
25609;SDS011;13479;49.044;8.716;2022-08-06T01:10:26;1.55;;;0.80;;
25609;SDS011;13479;49.044;8.716;2022-08-06T01:12:52;2.25;;;0.93;;
25609;SDS011;13479;49.044;8.716;2022-08-06T01:15:18;2.13;;;0.95;;
25609;SDS011;13479;49.044;8.716;2022-08-06T01:17:49;2.58;;;1.00;;
25609;SDS011;13479;49.044;8.716;2022-08-06T01:20:46;4.22;;;1.10;;
25609;SDS011;13479;49.044;8.716;2022-08-06T01:26:34;3.75;;;1.10;;
25609;SDS011;13479;49.044;8.716;2022-08-06T01:29:15;3.10;;;1.00;;
25609;SDS011;13479;49.044;8.716;2022-08-06T01:31:49;1.63;;;1.10;;
25609;SDS011;13479;49.044;8.716;2022-08-06T01:34:27;2.28;;;0.90;;
25609;SDS011;13479;49.044;8.716;2022-08-06T01:37:00;3.80;;;0.90;;
25609;SDS011;13479;49.044;8.716;2022-08-06T01:39:37;2.78;;;1.00;;
25609;SDS011;13479;49.044;8.716;2022-08-06T01:42:04;3.63;;;0.90;;
25609;SDS011;13479;49.044;8.716;2022-08-06T01:44:33;1.90;;;1.10;;
25609;SDS011;13479;49.044;8.716;2022-08-06T01:47:03;2.00;;;0.90;;
25609;SDS011;13479;49.044;8.716;2022-08-06T01:49:32;3.50;;;1.10;;
25609;SDS011;13479;49.044;8.716;2022-08-06T01:52:00;2.60;;;1.05;;
25609;SDS011;13479;49.044;8.716;2022-08-06T01:54:27;3.08;;;1.13;;
25609;SDS011;13479;49.044;8.716;2022-08-06T01:56:57;2.90;;;0.93;;
25609;SDS011;13479;49.044;8.716;2022-08-06T01:59:31;1.67;;;0.90;;
25609;SDS011;13479;49.044;8.716;2022-08-06T02:01:59;2.65;;;0.90;;
25609;SDS011;13479;49.044;8.716;2022-08-06T02:04:27;2.90;;;1.00;;
25609;SDS011;13479;49.044;8.716;2022-08-06T02:06:55;1.52;;;0.82;;
25609;SDS011;13479;49.044;8.716;2022-08-06T02:09:23;1.52;;;1.00;;
25609;SDS011;13479;49.044;8.716;2022-08-06T02:11:50;3.03;;;0.85;;
25609;SDS011;13479;49.044;8.716;2022-08-06T02:14:20;2.97;;;1.05;;
25609;SDS011;13479;49.044;8.716;2022-08-06T02:16:46;3.83;;;1.65;;
25609;SDS011;13479;49.044;8.716;2022-08-06T02:19:13;3.05;;;0.95;;
25609;SDS011;13479;49.044;8.716;2022-08-06T02:21:42;2.28;;;1.00;;
25609;SDS011;13479;49.044;8.716;2022-08-06T02:24:08;1.92;;;0.90;;
25609;SDS011;13479;49.044;8.716;2022-08-06T02:26:35;4.20;;;1.10;;
25609;SDS011;13479;49.044;8.716;2022-08-06T02:29:03;2.95;;;1.10;;
25609;SDS011;13479;49.044;8.716;2022-08-06T02:31:30;3.45;;;1.00;;
25609;SDS011;13479;49.044;8.716;2022-08-06T02:33:56;4.20;;;1.00;;
25609;SDS011;13479;49.044;8.716;2022-08-06T02:39:07;2.90;;;0.93;;
25609;SDS011;13479;49.044;8.716;2022-08-06T02:41:38;2.10;;;0.90;;
25609;SDS011;13479;49.044;8.716;2022-08-06T02:44:17;2.80;;;1.00;;
25609;SDS011;13479;49.044;8.716;2022-08-06T02:46:49;1.55;;;0.88;;
25609;SDS011;13479;49.044;8.716;2022-08-06T02:49:24;2.92;;;0.90;;
25609;SDS011;13479;49.044;8.716;2022-08-06T02:51:53;2.97;;;1.00;;
25609;SDS011;13479;49.044;8.716;2022-08-06T02:54:36;3.53;;;1.15;;
25609;SDS011;13479;49.044;8.716;2022-08-06T02:57:06;1.98;;;1.20;;
25609;SDS011;13479;49.044;8.716;2022-08-06T02:59:39;3.72;;;1.20;;
25609;SDS011;13479;49.044;8.716;2022-08-06T03:02:12;5.10;;;1.20;;
25609;SDS011;13479;49.044;8.716;2022-08-06T03:04:45;4.00;;;1.25;;
25609;SDS011;13479;49.044;8.716;2022-08-06T03:07:13;1.80;;;1.08;;
25609;SDS011;13479;49.044;8.716;2022-08-06T03:09:40;3.88;;;1.20;;
25609;SDS011;13479;49.044;8.716;2022-08-06T03:12:10;3.35;;;1.20;;
25609;SDS011;13479;49.044;8.716;2022-08-06T03:14:38;5.43;;;1.02;;
25609;SDS011;13479;49.044;8.716;2022-08-06T03:17:05;2.35;;;1.10;;
25609;SDS011;13479;49.044;8.716;2022-08-06T03:19:32;2.97;;;1.20;;
25609;SDS011;13479;49.044;8.716;2022-08-06T03:21:58;3.95;;;1.10;;
25609;SDS011;13479;49.044;8.716;2022-08-06T03:24:25;3.00;;;1.23;;
25609;SDS011;13479;49.044;8.716;2022-08-06T03:26:52;2.08;;;1.00;;
25609;SDS011;13479;49.044;8.716;2022-08-06T03:29:20;3.08;;;1.10;;
25609;SDS011;13479;49.044;8.716;2022-08-06T03:31:46;2.00;;;1.17;;
25609;SDS011;13479;49.044;8.716;2022-08-06T03:34:11;1.63;;;1.00;;
25609;SDS011;13479;49.044;8.716;2022-08-06T03:36:37;5.25;;;1.15;;
25609;SDS011;13479;49.044;8.716;2022-08-06T03:39:05;4.00;;;1.08;;
25609;SDS011;13479;49.044;8.716;2022-08-06T03:41:34;3.40;;;1.30;;
25609;SDS011;13479;49.044;8.716;2022-08-06T03:44:01;3.45;;;1.27;;
25609;SDS011;13479;49.044;8.716;2022-08-06T03:49:03;1.95;;;1.00;;
25609;SDS011;13479;49.044;8.716;2022-08-06T03:51:30;5.43;;;1.30;;
25609;SDS011;13479;49.044;8.716;2022-08-06T03:54:00;2.72;;;1.20;;
25609;SDS011;13479;49.044;8.716;2022-08-06T03:56:26;2.33;;;1.10;;
25609;SDS011;13479;49.044;8.716;2022-08-06T03:58:53;2.53;;;1.20;;
25609;SDS011;13479;49.044;8.716;2022-08-06T04:01:21;3.38;;;1.25;;
25609;SDS011;13479;49.044;8.716;2022-08-06T04:03:51;3.15;;;1.23;;
25609;SDS011;13479;49.044;8.716;2022-08-06T04:06:18;6.13;;;1.20;;
25609;SDS011;13479;49.044;8.716;2022-08-06T04:08:45;4.28;;;1.08;;
25609;SDS011;13479;49.044;8.716;2022-08-06T04:11:12;2.20;;;1.20;;
25609;SDS011;13479;49.044;8.716;2022-08-06T04:13:38;2.92;;;1.33;;
25609;SDS011;13479;49.044;8.716;2022-08-06T04:16:04;2.50;;;1.20;;
25609;SDS011;13479;49.044;8.716;2022-08-06T04:18:34;6.43;;;1.27;;
25609;SDS011;13479;49.044;8.716;2022-08-06T04:21:09;3.15;;;1.20;;
25609;SDS011;13479;49.044;8.716;2022-08-06T04:23:36;4.10;;;1.13;;
25609;SDS011;13479;49.044;8.716;2022-08-06T04:26:04;3.38;;;1.30;;
25609;SDS011;13479;49.044;8.716;2022-08-06T04:28:33;3.28;;;1.20;;
25609;SDS011;13479;49.044;8.716;2022-08-06T04:31:01;2.95;;;1.20;;
25609;SDS011;13479;49.044;8.716;2022-08-06T04:33:27;4.43;;;1.33;;
25609;SDS011;13479;49.044;8.716;2022-08-06T04:35:55;3.67;;;1.17;;
25609;SDS011;13479;49.044;8.716;2022-08-06T04:38:23;2.90;;;1.20;;
25609;SDS011;13479;49.044;8.716;2022-08-06T04:40:49;3.03;;;1.33;;
25609;SDS011;13479;49.044;8.716;2022-08-06T04:43:15;4.00;;;1.20;;
25609;SDS011;13479;49.044;8.716;2022-08-06T04:45:41;4.60;;;1.10;;
25609;SDS011;13479;49.044;8.716;2022-08-06T04:48:08;4.50;;;1.35;;
25609;SDS011;13479;49.044;8.716;2022-08-06T04:50:35;1.83;;;1.20;;
25609;SDS011;13479;49.044;8.716;2022-08-06T04:53:05;2.95;;;1.35;;
25609;SDS011;13479;49.044;8.716;2022-08-06T04:55:34;3.67;;;1.40;;
25609;SDS011;13479;49.044;8.716;2022-08-06T04:58:01;2.30;;;1.27;;
25609;SDS011;13479;49.044;8.716;2022-08-06T05:00:28;7.10;;;1.80;;
25609;SDS011;13479;49.044;8.716;2022-08-06T05:02:53;2.40;;;1.40;;
25609;SDS011;13479;49.044;8.716;2022-08-06T05:05:19;7.03;;;1.30;;
25609;SDS011;13479;49.044;8.716;2022-08-06T05:07:46;2.13;;;1.15;;
25609;SDS011;13479;49.044;8.716;2022-08-06T05:10:13;3.15;;;1.13;;
25609;SDS011;13479;49.044;8.716;2022-08-06T05:12:42;3.53;;;1.33;;
25609;SDS011;13479;49.044;8.716;2022-08-06T05:15:20;2.33;;;1.00;;
25609;SDS011;13479;49.044;8.716;2022-08-06T05:17:53;5.13;;;1.42;;
25609;SDS011;13479;49.044;8.716;2022-08-06T05:20:22;1.85;;;0.98;;
25609;SDS011;13479;49.044;8.716;2022-08-06T05:22:48;4.38;;;1.10;;
25609;SDS011;13479;49.044;8.716;2022-08-06T05:25:17;2.50;;;1.30;;
25609;SDS011;13479;49.044;8.716;2022-08-06T05:27:42;1.98;;;1.13;;
25609;SDS011;13479;49.044;8.716;2022-08-06T05:30:09;3.83;;;1.20;;
25609;SDS011;13479;49.044;8.716;2022-08-06T05:32:42;2.78;;;1.30;;
25609;SDS011;13479;49.044;8.716;2022-08-06T05:35:07;5.30;;;1.20;;
25609;SDS011;13479;49.044;8.716;2022-08-06T05:37:32;2.72;;;1.10;;
25609;SDS011;13479;49.044;8.716;2022-08-06T05:39:58;2.88;;;0.93;;
25609;SDS011;13479;49.044;8.716;2022-08-06T05:42:23;4.38;;;1.17;;
25609;SDS011;13479;49.044;8.716;2022-08-06T05:44:48;3.17;;;1.25;;
25609;SDS011;13479;49.044;8.716;2022-08-06T05:47:15;2.45;;;0.90;;
25609;SDS011;13479;49.044;8.716;2022-08-06T05:49:47;2.67;;;1.10;;
25609;SDS011;13479;49.044;8.716;2022-08-06T05:52:18;5.47;;;1.15;;
25609;SDS011;13479;49.044;8.716;2022-08-06T05:54:49;2.25;;;1.10;;
25609;SDS011;13479;49.044;8.716;2022-08-06T06:00:03;3.58;;;1.15;;
25609;SDS011;13479;49.044;8.716;2022-08-06T06:02:36;2.17;;;1.00;;
25609;SDS011;13479;49.044;8.716;2022-08-06T06:05:04;2.30;;;0.90;;
25609;SDS011;13479;49.044;8.716;2022-08-06T06:07:31;1.58;;;1.00;;
25609;SDS011;13479;49.044;8.716;2022-08-06T06:09:56;1.95;;;0.80;;
25609;SDS011;13479;49.044;8.716;2022-08-06T06:12:22;2.15;;;1.00;;
25609;SDS011;13479;49.044;8.716;2022-08-06T06:14:49;3.90;;;1.25;;
25609;SDS011;13479;49.044;8.716;2022-08-06T06:23:11;3.15;;;1.15;;
25609;SDS011;13479;49.044;8.716;2022-08-06T06:26:05;3.50;;;1.10;;
25609;SDS011;13479;49.044;8.716;2022-08-06T06:37:02;2.17;;;1.05;;
25609;SDS011;13479;49.044;8.716;2022-08-06T06:39:44;4.47;;;1.15;;
25609;SDS011;13479;49.044;8.716;2022-08-06T06:42:22;3.65;;;1.10;;
25609;SDS011;13479;49.044;8.716;2022-08-06T06:44:58;3.10;;;1.20;;
25609;SDS011;13479;49.044;8.716;2022-08-06T06:47:44;3.47;;;1.20;;
25609;SDS011;13479;49.044;8.716;2022-08-06T06:50:19;3.75;;;1.20;;
25609;SDS011;13479;49.044;8.716;2022-08-06T06:52:49;1.92;;;1.05;;
25609;SDS011;13479;49.044;8.716;2022-08-06T06:55:23;3.00;;;1.20;;
25609;SDS011;13479;49.044;8.716;2022-08-06T07:00:42;3.95;;;1.10;;
25609;SDS011;13479;49.044;8.716;2022-08-06T07:03:07;2.25;;;1.20;;
25609;SDS011;13479;49.044;8.716;2022-08-06T07:05:34;2.50;;;1.10;;
25609;SDS011;13479;49.044;8.716;2022-08-06T07:08:02;3.30;;;0.90;;
25609;SDS011;13479;49.044;8.716;2022-08-06T07:10:29;5.32;;;1.13;;
25609;SDS011;13479;49.044;8.716;2022-08-06T07:12:56;3.63;;;1.02;;
25609;SDS011;13479;49.044;8.716;2022-08-06T07:15:22;1.75;;;0.93;;
25609;SDS011;13479;49.044;8.716;2022-08-06T07:17:49;3.00;;;1.00;;
25609;SDS011;13479;49.044;8.716;2022-08-06T07:20:17;1.90;;;1.00;;
25609;SDS011;13479;49.044;8.716;2022-08-06T07:22:46;1.55;;;0.90;;
25609;SDS011;13479;49.044;8.716;2022-08-06T07:25:13;3.72;;;1.13;;
25609;SDS011;13479;49.044;8.716;2022-08-06T07:27:40;2.00;;;0.98;;
25609;SDS011;13479;49.044;8.716;2022-08-06T07:30:07;4.78;;;1.02;;
25609;SDS011;13479;49.044;8.716;2022-08-06T07:32:33;1.83;;;0.90;;
25609;SDS011;13479;49.044;8.716;2022-08-06T07:35:01;2.58;;;1.05;;
25609;SDS011;13479;49.044;8.716;2022-08-06T07:37:28;10.50;;;1.10;;
25609;SDS011;13479;49.044;8.716;2022-08-06T07:39:54;2.05;;;0.90;;
25609;SDS011;13479;49.044;8.716;2022-08-06T07:42:22;1.35;;;0.80;;
25609;SDS011;13479;49.044;8.716;2022-08-06T07:44:57;2.95;;;1.00;;
25609;SDS011;13479;49.044;8.716;2022-08-06T07:47:32;2.33;;;0.77;;
25609;SDS011;13479;49.044;8.716;2022-08-06T07:50:01;2.03;;;0.90;;
25609;SDS011;13479;49.044;8.716;2022-08-06T07:52:26;1.95;;;0.75;;
25609;SDS011;13479;49.044;8.716;2022-08-06T07:54:55;2.30;;;0.80;;
25609;SDS011;13479;49.044;8.716;2022-08-06T07:57:22;3.03;;;0.90;;
25609;SDS011;13479;49.044;8.716;2022-08-06T07:59:48;4.78;;;0.90;;
25609;SDS011;13479;49.044;8.716;2022-08-06T08:02:14;1.85;;;0.80;;
25609;SDS011;13479;49.044;8.716;2022-08-06T08:04:41;2.95;;;0.80;;
25609;SDS011;13479;49.044;8.716;2022-08-06T08:07:25;4.40;;;0.80;;
25609;SDS011;13479;49.044;8.716;2022-08-06T08:09:53;2.50;;;0.90;;
25609;SDS011;13479;49.044;8.716;2022-08-06T08:12:19;1.67;;;0.90;;
25609;SDS011;13479;49.044;8.716;2022-08-06T08:14:47;5.88;;;0.88;;
25609;SDS011;13479;49.044;8.716;2022-08-06T08:17:14;6.25;;;0.90;;
25609;SDS011;13479;49.044;8.716;2022-08-06T08:19:40;3.45;;;0.70;;
25609;SDS011;13479;49.044;8.716;2022-08-06T08:22:06;1.80;;;0.60;;
25609;SDS011;13479;49.044;8.716;2022-08-06T08:24:35;2.03;;;0.70;;
25609;SDS011;13479;49.044;8.716;2022-08-06T08:27:01;15.40;;;1.67;;
25609;SDS011;13479;49.044;8.716;2022-08-06T08:29:28;6.75;;;0.90;;
25609;SDS011;13479;49.044;8.716;2022-08-06T08:31:54;1.63;;;0.80;;
25609;SDS011;13479;49.044;8.716;2022-08-06T08:34:20;1.80;;;0.68;;
25609;SDS011;13479;49.044;8.716;2022-08-06T08:36:45;4.60;;;0.80;;
25609;SDS011;13479;49.044;8.716;2022-08-06T08:39:10;5.80;;;0.70;;
25609;SDS011;13479;49.044;8.716;2022-08-06T08:41:36;2.53;;;0.80;;
25609;SDS011;13479;49.044;8.716;2022-08-06T08:44:07;2.25;;;0.60;;
25609;SDS011;13479;49.044;8.716;2022-08-06T08:46:34;2.40;;;0.70;;
25609;SDS011;13479;49.044;8.716;2022-08-06T08:49:03;1.40;;;0.73;;
25609;SDS011;13479;49.044;8.716;2022-08-06T08:51:30;2.42;;;0.68;;
25609;SDS011;13479;49.044;8.716;2022-08-06T08:53:57;3.08;;;0.68;;
25609;SDS011;13479;49.044;8.716;2022-08-06T08:56:25;1.90;;;0.60;;
25609;SDS011;13479;49.044;8.716;2022-08-06T08:58:50;3.30;;;0.80;;
25609;SDS011;13479;49.044;8.716;2022-08-06T09:01:16;7.57;;;0.63;;
25609;SDS011;13479;49.044;8.716;2022-08-06T09:03:43;1.80;;;0.60;;
25609;SDS011;13479;49.044;8.716;2022-08-06T09:06:09;1.65;;;0.70;;
25609;SDS011;13479;49.044;8.716;2022-08-06T09:08:35;1.77;;;0.60;;
25609;SDS011;13479;49.044;8.716;2022-08-06T09:11:04;2.78;;;0.55;;
25609;SDS011;13479;49.044;8.716;2022-08-06T09:13:30;2.75;;;0.70;;
25609;SDS011;13479;49.044;8.716;2022-08-06T09:15:56;0.95;;;0.60;;
25609;SDS011;13479;49.044;8.716;2022-08-06T09:18:22;3.70;;;0.60;;
25609;SDS011;13479;49.044;8.716;2022-08-06T09:20:49;1.80;;;0.70;;
25609;SDS011;13479;49.044;8.716;2022-08-06T09:23:15;1.23;;;0.52;;
25609;SDS011;13479;49.044;8.716;2022-08-06T09:25:51;4.57;;;0.80;;
25609;SDS011;13479;49.044;8.716;2022-08-06T09:28:28;3.00;;;0.60;;
25609;SDS011;13479;49.044;8.716;2022-08-06T09:31:05;1.55;;;0.60;;
25609;SDS011;13479;49.044;8.716;2022-08-06T09:33:35;2.40;;;0.70;;
25609;SDS011;13479;49.044;8.716;2022-08-06T09:36:06;4.28;;;0.93;;
25609;SDS011;13479;49.044;8.716;2022-08-06T09:38:47;2.50;;;0.60;;
25609;SDS011;13479;49.044;8.716;2022-08-06T09:41:14;1.23;;;0.57;;
25609;SDS011;13479;49.044;8.716;2022-08-06T09:43:41;2.70;;;0.70;;
25609;SDS011;13479;49.044;8.716;2022-08-06T09:46:07;1.17;;;0.60;;
25609;SDS011;13479;49.044;8.716;2022-08-06T09:48:33;2.55;;;0.55;;
25609;SDS011;13479;49.044;8.716;2022-08-06T09:50:59;1.73;;;0.68;;
25609;SDS011;13479;49.044;8.716;2022-08-06T09:53:25;2.10;;;0.60;;
25609;SDS011;13479;49.044;8.716;2022-08-06T09:55:54;1.83;;;0.70;;
25609;SDS011;13479;49.044;8.716;2022-08-06T09:58:34;1.77;;;0.52;;
25609;SDS011;13479;49.044;8.716;2022-08-06T10:01:17;2.78;;;0.60;;
25609;SDS011;13479;49.044;8.716;2022-08-06T10:03:47;5.60;;;0.55;;
25609;SDS011;13479;49.044;8.716;2022-08-06T10:06:14;1.80;;;0.60;;
25609;SDS011;13479;49.044;8.716;2022-08-06T10:08:45;2.92;;;0.60;;
25609;SDS011;13479;49.044;8.716;2022-08-06T10:11:10;3.80;;;0.65;;
25609;SDS011;13479;49.044;8.716;2022-08-06T10:13:36;1.73;;;0.50;;
25609;SDS011;13479;49.044;8.716;2022-08-06T10:16:16;2.30;;;0.60;;
25609;SDS011;13479;49.044;8.716;2022-08-06T10:18:51;2.85;;;0.50;;
25609;SDS011;13479;49.044;8.716;2022-08-06T10:21:18;3.45;;;0.63;;
25609;SDS011;13479;49.044;8.716;2022-08-06T10:23:49;2.55;;;0.50;;
25609;SDS011;13479;49.044;8.716;2022-08-06T10:26:17;1.98;;;0.50;;
25609;SDS011;13479;49.044;8.716;2022-08-06T10:28:44;1.38;;;0.52;;
25609;SDS011;13479;49.044;8.716;2022-08-06T10:31:12;1.55;;;0.52;;
25609;SDS011;13479;49.044;8.716;2022-08-06T10:36:18;1.50;;;0.50;;
25609;SDS011;13479;49.044;8.716;2022-08-06T10:38:50;2.33;;;0.80;;
25609;SDS011;13479;49.044;8.716;2022-08-06T10:41:17;1.58;;;0.40;;
25609;SDS011;13479;49.044;8.716;2022-08-06T10:43:43;1.13;;;0.45;;
25609;SDS011;13479;49.044;8.716;2022-08-06T10:46:10;2.53;;;0.40;;
25609;SDS011;13479;49.044;8.716;2022-08-06T10:48:40;2.17;;;0.70;;
25609;SDS011;13479;49.044;8.716;2022-08-06T10:51:08;0.85;;;0.55;;
25609;SDS011;13479;49.044;8.716;2022-08-06T10:53:36;3.45;;;0.60;;
25609;SDS011;13479;49.044;8.716;2022-08-06T10:56:04;2.30;;;0.70;;
25609;SDS011;13479;49.044;8.716;2022-08-06T10:58:32;1.65;;;0.50;;
25609;SDS011;13479;49.044;8.716;2022-08-06T11:00:59;1.13;;;0.50;;
25609;SDS011;13479;49.044;8.716;2022-08-06T11:03:34;1.60;;;0.65;;
25609;SDS011;13479;49.044;8.716;2022-08-06T11:09:03;2.33;;;0.43;;
25609;SDS011;13479;49.044;8.716;2022-08-06T11:11:51;2.30;;;0.70;;
25609;SDS011;13479;49.044;8.716;2022-08-06T11:14:40;1.02;;;0.30;;
25609;SDS011;13479;49.044;8.716;2022-08-06T11:17:06;1.50;;;0.70;;
25609;SDS011;13479;49.044;8.716;2022-08-06T11:19:38;3.45;;;0.70;;
25609;SDS011;13479;49.044;8.716;2022-08-06T11:22:05;1.13;;;0.60;;
25609;SDS011;13479;49.044;8.716;2022-08-06T11:24:31;2.55;;;0.60;;
25609;SDS011;13479;49.044;8.716;2022-08-06T11:26:57;1.75;;;0.68;;
25609;SDS011;13479;49.044;8.716;2022-08-06T11:29:22;3.17;;;0.60;;
25609;SDS011;13479;49.044;8.716;2022-08-06T11:31:49;2.17;;;0.60;;
25609;SDS011;13479;49.044;8.716;2022-08-06T11:34:16;1.90;;;0.57;;
25609;SDS011;13479;49.044;8.716;2022-08-06T11:36:44;4.65;;;0.70;;
25609;SDS011;13479;49.044;8.716;2022-08-06T11:39:12;2.88;;;0.60;;
25609;SDS011;13479;49.044;8.716;2022-08-06T11:41:45;2.38;;;0.50;;
25609;SDS011;13479;49.044;8.716;2022-08-06T11:44:22;1.95;;;0.50;;
25609;SDS011;13479;49.044;8.716;2022-08-06T11:49:39;2.17;;;0.60;;
25609;SDS011;13479;49.044;8.716;2022-08-06T11:52:07;2.97;;;0.70;;
25609;SDS011;13479;49.044;8.716;2022-08-06T12:05:04;2.13;;;0.60;;
25609;SDS011;13479;49.044;8.716;2022-08-06T12:07:31;1.20;;;0.50;;
25609;SDS011;13479;49.044;8.716;2022-08-06T12:14:59;0.95;;;0.50;;
25609;SDS011;13479;49.044;8.716;2022-08-06T12:17:29;2.22;;;0.60;;
25609;SDS011;13479;49.044;8.716;2022-08-06T12:19:56;5.38;;;0.80;;
25609;SDS011;13479;49.044;8.716;2022-08-06T12:22:27;1.15;;;0.60;;
25609;SDS011;13479;49.044;8.716;2022-08-06T12:24:54;3.97;;;0.68;;
25609;SDS011;13479;49.044;8.716;2022-08-06T12:27:22;11.43;;;1.00;;
25609;SDS011;13479;49.044;8.716;2022-08-06T12:29:48;3.45;;;0.75;;
25609;SDS011;13479;49.044;8.716;2022-08-06T12:32:19;2.92;;;0.60;;
25609;SDS011;13479;49.044;8.716;2022-08-06T12:34:49;4.70;;;0.55;;
25609;SDS011;13479;49.044;8.716;2022-08-06T12:37:15;7.95;;;0.80;;
25609;SDS011;13479;49.044;8.716;2022-08-06T12:39:41;1.40;;;0.52;;
25609;SDS011;13479;49.044;8.716;2022-08-06T12:42:26;2.30;;;0.52;;
25609;SDS011;13479;49.044;8.716;2022-08-06T12:44:52;0.95;;;0.57;;
25609;SDS011;13479;49.044;8.716;2022-08-06T12:47:18;2.33;;;0.63;;
25609;SDS011;13479;49.044;8.716;2022-08-06T12:49:44;1.08;;;0.50;;
25609;SDS011;13479;49.044;8.716;2022-08-06T12:52:16;1.25;;;0.60;;
25609;SDS011;13479;49.044;8.716;2022-08-06T12:54:46;1.40;;;0.50;;
25609;SDS011;13479;49.044;8.716;2022-08-06T12:59:51;2.40;;;0.70;;
25609;SDS011;13479;49.044;8.716;2022-08-06T13:02:18;1.63;;;0.50;;
25609;SDS011;13479;49.044;8.716;2022-08-06T13:04:53;2.17;;;0.70;;
25609;SDS011;13479;49.044;8.716;2022-08-06T13:07:20;2.22;;;0.70;;
25609;SDS011;13479;49.044;8.716;2022-08-06T13:09:46;3.58;;;0.80;;
25609;SDS011;13479;49.044;8.716;2022-08-06T13:12:13;2.53;;;0.60;;
25609;SDS011;13479;49.044;8.716;2022-08-06T13:14:51;1.17;;;0.50;;
25609;SDS011;13479;49.044;8.716;2022-08-06T13:17:24;2.05;;;0.55;;
25609;SDS011;13479;49.044;8.716;2022-08-06T13:22:20;2.13;;;0.70;;
25609;SDS011;13479;49.044;8.716;2022-08-06T13:24:47;1.17;;;0.70;;
25609;SDS011;13479;49.044;8.716;2022-08-06T13:27:13;2.38;;;0.65;;
25609;SDS011;13479;49.044;8.716;2022-08-06T13:29:57;1.88;;;0.90;;
25609;SDS011;13479;49.044;8.716;2022-08-06T13:32:24;7.85;;;1.08;;
25609;SDS011;13479;49.044;8.716;2022-08-06T13:34:51;1.08;;;0.60;;
25609;SDS011;13479;49.044;8.716;2022-08-06T13:40:11;1.70;;;0.68;;
25609;SDS011;13479;49.044;8.716;2022-08-06T13:42:47;2.33;;;0.57;;
25609;SDS011;13479;49.044;8.716;2022-08-06T13:48:00;2.20;;;0.70;;
25609;SDS011;13479;49.044;8.716;2022-08-06T13:50:29;1.83;;;0.60;;
25609;SDS011;13479;49.044;8.716;2022-08-06T13:52:57;3.20;;;0.63;;
25609;SDS011;13479;49.044;8.716;2022-08-06T13:55:23;3.60;;;0.52;;
25609;SDS011;13479;49.044;8.716;2022-08-06T13:57:49;1.33;;;0.50;;
25609;SDS011;13479;49.044;8.716;2022-08-06T14:00:15;1.73;;;0.50;;
25609;SDS011;13479;49.044;8.716;2022-08-06T14:02:40;2.95;;;0.70;;
25609;SDS011;13479;49.044;8.716;2022-08-06T14:05:06;2.65;;;0.60;;
25609;SDS011;13479;49.044;8.716;2022-08-06T14:07:31;2.97;;;0.70;;
25609;SDS011;13479;49.044;8.716;2022-08-06T14:09:56;1.45;;;0.60;;
25609;SDS011;13479;49.044;8.716;2022-08-06T14:12:22;3.10;;;0.70;;
25609;SDS011;13479;49.044;8.716;2022-08-06T14:14:47;2.38;;;0.70;;
25609;SDS011;13479;49.044;8.716;2022-08-06T14:17:12;5.10;;;0.70;;
25609;SDS011;13479;49.044;8.716;2022-08-06T14:19:38;1.70;;;0.60;;
25609;SDS011;13479;49.044;8.716;2022-08-06T14:22:03;1.35;;;0.50;;
25609;SDS011;13479;49.044;8.716;2022-08-06T14:24:28;5.80;;;0.50;;
25609;SDS011;13479;49.044;8.716;2022-08-06T14:26:53;3.55;;;0.60;;
25609;SDS011;13479;49.044;8.716;2022-08-06T14:29:19;2.50;;;0.60;;
25609;SDS011;13479;49.044;8.716;2022-08-06T14:31:44;1.55;;;0.43;;
25609;SDS011;13479;49.044;8.716;2022-08-06T14:34:09;2.15;;;0.40;;
25609;SDS011;13479;49.044;8.716;2022-08-06T14:36:35;1.17;;;0.50;;
25609;SDS011;13479;49.044;8.716;2022-08-06T14:39:00;2.30;;;0.52;;
25609;SDS011;13479;49.044;8.716;2022-08-06T14:41:25;1.45;;;0.73;;
25609;SDS011;13479;49.044;8.716;2022-08-06T14:44:09;1.17;;;0.50;;
25609;SDS011;13479;49.044;8.716;2022-08-06T14:46:54;2.88;;;0.60;;
25609;SDS011;13479;49.044;8.716;2022-08-06T14:49:20;1.15;;;0.50;;
25609;SDS011;13479;49.044;8.716;2022-08-06T14:51:45;3.15;;;0.60;;
25609;SDS011;13479;49.044;8.716;2022-08-06T14:54:11;1.33;;;0.50;;
25609;SDS011;13479;49.044;8.716;2022-08-06T14:56:36;1.88;;;0.50;;
25609;SDS011;13479;49.044;8.716;2022-08-06T14:59:02;2.47;;;0.75;;
25609;SDS011;13479;49.044;8.716;2022-08-06T15:01:27;4.63;;;0.60;;
25609;SDS011;13479;49.044;8.716;2022-08-06T15:03:52;0.47;;;0.40;;
25609;SDS011;13479;49.044;8.716;2022-08-06T15:06:18;1.35;;;0.50;;
25609;SDS011;13479;49.044;8.716;2022-08-06T15:08:43;2.05;;;0.60;;
25609;SDS011;13479;49.044;8.716;2022-08-06T15:11:08;1.70;;;0.43;;
25609;SDS011;13479;49.044;8.716;2022-08-06T15:13:34;1.98;;;0.50;;
25609;SDS011;13479;49.044;8.716;2022-08-06T15:15:59;3.58;;;0.60;;
25609;SDS011;13479;49.044;8.716;2022-08-06T15:18:24;1.95;;;0.60;;
25609;SDS011;13479;49.044;8.716;2022-08-06T15:20:49;2.45;;;0.50;;
25609;SDS011;13479;49.044;8.716;2022-08-06T15:23:15;2.78;;;0.63;;
25609;SDS011;13479;49.044;8.716;2022-08-06T15:25:41;2.90;;;0.80;;
25609;SDS011;13479;49.044;8.716;2022-08-06T15:28:06;1.05;;;0.60;;
25609;SDS011;13479;49.044;8.716;2022-08-06T15:30:32;1.33;;;0.50;;
25609;SDS011;13479;49.044;8.716;2022-08-06T15:32:57;4.47;;;0.93;;
25609;SDS011;13479;49.044;8.716;2022-08-06T15:35:23;1.52;;;0.60;;
25609;SDS011;13479;49.044;8.716;2022-08-06T15:37:49;1.73;;;0.60;;
25609;SDS011;13479;49.044;8.716;2022-08-06T15:40:14;1.38;;;0.60;;
25609;SDS011;13479;49.044;8.716;2022-08-06T15:42:40;1.33;;;0.60;;
25609;SDS011;13479;49.044;8.716;2022-08-06T15:45:05;2.35;;;0.80;;
25609;SDS011;13479;49.044;8.716;2022-08-06T15:47:31;1.88;;;0.52;;
25609;SDS011;13479;49.044;8.716;2022-08-06T15:49:56;2.70;;;0.60;;
25609;SDS011;13479;49.044;8.716;2022-08-06T15:52:21;1.88;;;0.60;;
25609;SDS011;13479;49.044;8.716;2022-08-06T15:54:47;2.55;;;0.73;;
25609;SDS011;13479;49.044;8.716;2022-08-06T15:57:13;2.20;;;0.57;;
25609;SDS011;13479;49.044;8.716;2022-08-06T15:59:40;1.15;;;0.50;;